Cisterniga, Spain
Current Conditions -  °F | °C
As of 7:30 AM on Sunday 21 Dec 2014 (Local Time) from LEVD Reporting Station
Moderate Fog Moderate Fog  
Wind Chill: 36°   Ceiling: 100
Heat Index: 36°   Visibility: 0.12mi
Dew Point: 36°   Wind: 3mph
Humidity: 100%   Direction: 10°N
Pressure: 30.5"   Gusts: NA
Location:  41.61°N, 4.69°W
Report Text: LEVD 210630Z 01003KT 0200 R23/0400N FG VV001 02/02 Q1033
Loading
Personal Weather Stations






























Interactive Weather Map New forecast layout! Learn more

10-Day Weather Forecast

Advertisements
Track Severe Weather on mobile